Time;durP1;ratioP1;P1;durP2;ratioP2;P2;SDS_P1;SDS_P2;PMS_P1;PMS_P2;Temp;Humidity;BMP_temperature;BMP_pressure;BME280_temperature;BME280_humidity;BME280_pressure;Samples;Min_cycle;Max_cycle;Signal;HPM_P1;HPM_P2
2022/12/30 00:01:25;;;;;;;67.37;43.75;;;;;;;7.22;83.76;100337.17;1760567;80;20959;-84
2022/12/30 00:03:52;;;;;;;34.70;18.95;;;;;;;7.20;83.84;100341.47;1759530;80;21018;-84
2022/12/30 00:08:49;;;;;;;54.50;35.35;;;;;;;7.22;83.85;100342.83;1749875;81;22599;-84
2022/12/30 00:11:23;;;;;;;80.15;44.00;;;;;;;7.14;83.81;100356.98;1719270;82;20976;-84
2022/12/30 00:34:36;;;;;;;43.33;30.20;;;;;;;7.39;84.23;100375.27;1723810;83;21063;-86
2022/12/30 00:37:02;;;;;;;;;;;;;;;7.45;84.18;100377.20;1702126;83;21088;-84
2022/12/30 00:39:29;;;;;;;54.20;41.05;;;;;;;7.45;84.08;100371.05;1726848;81;20177;-84
2022/12/30 00:44:55;;;;;;;28.35;22.35;;;;;;;7.47;84.00;100375.91;1722753;83;21126;-90
2022/12/30 00:47:45;;;;;;;22.40;18.98;;;;;;;7.49;84.05;100370.30;1734935;81;21095;-91
2022/12/30 00:58:29;;;;;;;11.80;8.95;;;;;;;7.66;83.89;100347.23;1727187;81;21070;-84
2022/12/30 01:00:56;;;;;;;20.15;12.85;;;;;;;7.68;83.76;100344.27;1680605;84;21138;-86
2022/12/30 01:03:23;;;;;;;11.22;8.33;;;;;;;7.68;83.62;100353.44;1691715;83;21628;-84
2022/12/30 01:05:50;;;;;;;15.95;12.20;;;;;;;7.64;83.47;100359.01;1668846;84;21140;-84
2022/12/30 01:08:18;;;;;;;12.25;7.90;;;;;;;7.59;83.36;100364.09;1666151;84;22293;-91
2022/12/30 01:10:45;;;;;;;11.08;6.22;;;;;;;7.55;83.38;100368.77;1663526;85;21200;-90
2022/12/30 01:13:12;;;;;;;12.63;9.95;;;;;;;7.52;83.35;100366.05;1663284;86;21124;-90
2022/12/30 01:15:39;;;;;;;8.40;5.92;;;;;;;7.51;83.33;100369.95;1663357;86;21645;-91
2022/12/30 01:18:07;;;;;;;9.38;5.90;;;;;;;7.48;83.34;100365.48;1663297;86;21049;-91
2022/12/30 01:20:36;;;;;;;3.90;2.75;;;;;;;7.46;83.33;100365.86;1665044;84;21745;-84
2022/12/30 01:23:03;;;;;;;6.40;2.70;;;;;;;7.46;83.38;100369.79;1662414;85;21053;-84
2022/12/30 01:25:30;;;;;;;6.97;3.60;;;;;;;7.46;83.39;100372.41;1672853;84;21507;-86
2022/12/30 01:27:57;;;;;;;7.45;3.52;;;;;;;7.47;83.41;100376.82;1668420;84;21155;-86
2022/12/30 01:30:24;;;;;;;11.30;4.37;;;;;;;7.49;83.49;100377.75;1669651;84;21898;-85
2022/12/30 01:32:50;;;;;;;11.78;5.12;;;;;;;7.54;83.56;100384.43;1665940;84;21671;-85
2022/12/30 01:35:17;;;;;;;12.40;4.55;;;;;;;7.58;83.60;100389.83;1662121;86;21074;-84
2022/12/30 01:37:44;;;;;;;6.08;3.60;;;;;;;7.64;83.66;100385.20;1665023;84;21003;-84
2022/12/30 01:40:13;;;;;;;7.17;3.60;;;;;;;7.69;83.63;100386.21;1672786;84;21033;-85
2022/12/30 01:42:40;;;;;;;9.58;3.83;;;;;;;7.73;83.61;100380.25;1668075;84;21009;-85
2022/12/30 01:45:26;;;;;;;7.22;3.80;;;;;;;7.75;83.49;100377.25;1671838;84;22614;-85
2022/12/30 01:48:03;;;;;;;7.62;3.45;;;;;;;7.76;83.46;100376.82;1661806;84;21040;-84
2022/12/30 01:51:04;;;;;;;4.95;3.08;;;;;;;7.78;83.45;100376.01;1667255;84;21071;-86
2022/12/30 01:53:41;;;;;;;5.45;2.98;;;;;;;7.82;83.45;100373.06;1674015;84;21130;-84
2022/12/30 01:56:13;;;;;;;6.33;3.02;;;;;;;7.87;83.40;100371.91;1668194;84;21189;-84
2022/12/30 01:59:03;;;;;;;5.78;3.10;;;;;;;7.86;83.17;100366.19;1666992;84;21765;-84
2022/12/30 02:01:32;;;;;;;7.75;3.22;;;;;;;7.81;83.02;100370.39;1667363;84;21085;-84
2022/12/30 02:04:03;;;;;;;7.05;2.77;;;;;;;7.73;82.86;100371.47;1660745;84;21115;-84
2022/12/30 02:06:53;;;;;;;7.85;3.05;;;;;;;7.64;82.78;100372.50;1663938;84;22257;-84
2022/12/30 02:09:20;;;;;;;8.05;3.15;;;;;;;7.58;82.82;100374.51;1660296;84;22008;-84
2022/12/30 02:11:47;;;;;;;6.75;3.90;;;;;;;7.51;82.76;100381.73;1659902;85;21814;-84
2022/12/30 02:14:14;;;;;;;9.48;4.05;;;;;;;7.45;82.82;100380.21;1635642;86;21066;-84
2022/12/30 02:17:13;;;;;;;8.93;4.25;;;;;;;7.39;82.82;100382.22;1661871;85;22162;-84
2022/12/30 02:19:54;;;;;;;7.05;3.90;;;;;;;7.35;82.88;100384.27;1654158;85;21128;-84
2022/12/30 02:22:49;;;;;;;7.83;3.70;;;;;;;7.32;82.97;100389.40;1658585;85;21084;-84
2022/12/30 02:26:00;;;;;;;5.72;3.77;;;;;;;7.34;83.25;100389.94;1657025;85;21723;-90
2022/12/30 02:28:58;;;;;;;6.10;3.50;;;;;;;7.38;83.33;100381.34;1658073;85;21078;-91
2022/12/30 02:31:49;;;;;;;7.22;3.47;;;;;;;7.44;83.45;100374.09;1664252;85;21136;-92
2022/12/30 02:34:24;;;;;;;7.28;3.40;;;;;;;7.49;83.43;100368.59;1646403;85;21150;-83
2022/12/30 02:37:14;;;;;;;6.92;3.42;;;;;;;7.49;83.37;100362.04;1660988;84;21168;-86
2022/12/30 02:40:04;;;;;;;6.85;3.70;;;;;;;7.49;83.31;100363.75;1664621;85;21787;-86
2022/12/30 02:45:49;;;;;;;9.60;4.00;;;;;;;7.39;83.31;100345.55;1659361;85;21073;-84
2022/12/30 02:48:30;;;;;;;6.58;3.42;;;;;;;7.48;83.31;100354.12;1662701;85;21081;-90
2022/12/30 02:53:50;;;;;;;9.13;4.90;;;;;;;7.45;83.36;100366.72;1652236;86;21788;-89
2022/12/30 02:56:17;;;;;;;7.35;3.77;;;;;;;7.42;83.31;100370.54;1664474;85;21126;-89
2022/12/30 02:58:50;;;;;;;7.80;4.28;;;;;;;7.39;83.28;100366.11;1669947;85;21116;-89
2022/12/30 03:04:41;;;;;;;9.33;4.33;;;;;;;7.32;83.21;100369.77;1654602;85;21995;-91
2022/12/30 03:07:32;;;;;;;7.05;4.17;;;;;;;7.25;83.25;100370.43;1655557;85;22529;-91
2022/12/30 03:13:12;;;;;;;6.22;3.83;;;;;;;7.25;83.64;100379.59;1648026;85;21150;-93
2022/12/30 03:16:10;;;;;;;6.55;3.65;;;;;;;7.33;83.90;100381.59;1641404;87;21428;-91
2022/12/30 03:18:37;;;;;;;9.33;4.15;;;;;;;7.40;84.03;100393.17;1641209;87;21330;-91
2022/12/30 03:21:06;;;;;;;9.43;4.10;;;;;;;7.48;84.16;100389.48;1651400;85;21963;-91
2022/12/30 03:29:14;;;;;;;6.70;3.35;;;;;;;7.61;84.32;100389.45;1653211;85;21091;-93
2022/12/30 03:31:43;;;;;;;5.87;2.90;;;;;;;7.65;84.46;100380.41;1669306;85;21051;-92
2022/12/30 03:34:16;;;;;;;5.45;2.70;;;;;;;7.68;84.44;100376.59;1665762;85;21754;-91
2022/12/30 03:36:46;;;;;;;5.70;2.40;;;;;;;7.65;84.41;100359.89;1663944;85;21631;-92
2022/12/30 03:40:03;;;;;;;4.53;2.12;;;;;;;7.73;84.30;100375.41;1654861;85;21071;-91
2022/12/30 03:45:12;;;;;;;5.22;1.45;;;;;;;7.82;83.97;100369.14;1806437;77;22734;-90
2022/12/30 03:47:39;;;;;;;3.85;1.90;;;;;;;7.76;83.80;100376.39;1770424;80;22078;-90
2022/12/30 03:50:07;;;;;;;3.58;1.85;;;;;;;7.71;83.58;100379.71;1793456;79;21723;-90
2022/12/30 03:52:33;;;;;;;2.83;1.45;;;;;;;7.63;83.44;100377.30;1790466;79;21034;-90
2022/12/30 03:55:00;;;;;;;3.35;2.00;;;;;;;7.57;83.39;100391.09;1799900;78;21009;-89
2022/12/30 03:57:27;;;;;;;4.22;1.62;;;;;;;7.52;83.47;100392.23;1792554;79;21056;-90
2022/12/30 03:59:54;;;;;;;5.78;1.70;;;;;;;7.51;83.58;100397.02;1793998;79;21104;-90
2022/12/30 04:02:20;;;;;;;2.87;1.75;;;;;;;7.56;83.73;100406.31;1797091;79;22000;-89
2022/12/30 04:04:47;;;;;;;3.17;1.57;;;;;;;7.61;83.79;100407.79;1791133;79;21056;-90
2022/12/30 04:07:14;;;;;;;4.28;1.70;;;;;;;7.65;83.71;100408.34;1785931;79;21068;-89
2022/12/30 04:09:40;;;;;;;3.58;1.60;;;;;;;7.68;83.74;100411.95;1796771;79;21052;-89
2022/12/30 04:12:07;;;;;;;3.02;1.98;;;;;;;7.73;83.65;100414.70;1786023;79;21036;-89
2022/12/30 04:14:34;;;;;;;3.70;1.80;;;;;;;7.76;83.62;100411.77;1805989;79;21753;-89
2022/12/30 04:17:01;;;;;;;2.75;1.55;;;;;;;7.76;83.54;100404.33;1807320;79;21045;-89
2022/12/30 04:19:27;;;;;;;4.97;1.90;;;;;;;7.77;83.50;100407.40;1800141;79;21547;-90
2022/12/30 04:21:54;;;;;;;3.98;1.80;;;;;;;7.75;83.46;100400.83;1797639;79;21068;-89
2022/12/30 04:24:21;;;;;;;2.52;1.57;;;;;;;7.74;83.48;100396.42;1793784;79;21088;-91
2022/12/30 04:26:48;;;;;;;3.72;1.72;;;;;;;7.78;83.47;100393.47;1795758;79;22047;-89
2022/12/30 04:29:14;;;;;;;3.60;1.40;;;;;;;7.78;83.41;100397.41;1789744;79;21044;-90
2022/12/30 04:31:41;;;;;;;3.67;2.02;;;;;;;7.75;83.32;100398.61;1791385;79;20997;-89
2022/12/30 04:34:09;;;;;;;4.22;1.62;;;;;;;7.74;83.30;100401.66;1789559;79;21124;-89
2022/12/30 04:36:36;;;;;;;2.33;1.42;;;;;;;7.72;83.29;100407.27;1793307;79;21050;-92
2022/12/30 04:39:02;;;;;;;3.72;1.75;;;;;;;7.70;83.28;100410.27;1791758;78;21708;-88
2022/12/30 04:41:29;;;;;;;5.20;2.12;;;;;;;7.71;83.35;100409.84;1785747;79;20954;-90
2022/12/30 04:43:56;;;;;;;4.22;2.27;;;;;;;7.70;83.36;100417.25;1790985;79;20986;-89
2022/12/30 04:46:23;;;;;;;4.20;2.02;;;;;;;7.71;83.42;100425.56;1794389;78;21129;-89
2022/12/30 04:48:49;;;;;;;5.30;2.05;;;;;;;7.73;83.50;100424.78;1786822;79;21048;-89
2022/12/30 04:51:16;;;;;;;3.52;2.05;;;;;;;7.78;83.47;100424.91;1795997;78;21729;-90
2022/12/30 04:53:43;;;;;;;4.72;2.27;;;;;;;7.80;83.37;100429.78;1800698;79;21053;-89
2022/12/30 04:56:09;;;;;;;4.60;2.00;;;;;;;7.76;83.22;100432.72;1800494;79;21073;-89
2022/12/30 04:58:36;;;;;;;3.67;1.95;;;;;;;7.76;83.21;100437.08;1791482;79;21090;-89
2022/12/30 05:01:03;;;;;;;3.80;1.70;;;;;;;7.75;83.18;100431.36;1795614;79;22144;-90
2022/12/30 05:03:30;;;;;;;4.12;1.90;;;;;;;7.73;83.15;100433.95;1792056;78;21722;-90
2022/12/30 05:05:56;;;;;;;4.22;2.02;;;;;;;7.75;83.11;100443.15;1793496;78;21030;-90
2022/12/30 05:08:23;;;;;;;4.47;1.72;;;;;;;7.73;83.07;100434.35;1792040;78;21010;-89
2022/12/30 05:10:50;;;;;;;5.08;1.67;;;;;;;7.71;83.01;100441.28;1783893;79;21021;-89
2022/12/30 05:13:16;;;;;;;4.55;1.82;;;;;;;7.69;82.94;100449.08;1790471;79;21018;-90
2022/12/30 05:15:43;;;;;;;3.27;1.80;;;;;;;7.67;82.91;100457.31;1787859;79;22584;-91
2022/12/30 05:18:10;;;;;;;2.62;1.62;;;;;;;7.65;82.88;100449.83;1789024;79;21813;-90
2022/12/30 05:20:37;;;;;;;3.17;1.50;;;;;;;7.66;82.89;100450.71;1790798;79;21499;-90
2022/12/30 05:26:13;;;;;;;4.42;1.80;;;;;;;7.67;82.91;100455.13;1798805;78;21041;-90
2022/12/30 05:28:17;;;;;;;3.80;1.50;;;;;;;7.67;82.82;100456.01;1798123;78;23036;-85
2022/12/30 05:30:44;;;;;;;3.00;1.60;;;;;;;7.67;82.71;100460.37;1796123;79;21973;-85
2022/12/30 05:33:10;;;;;;;3.50;1.70;;;;;;;7.65;82.56;100463.36;1786704;79;21420;-85
2022/12/30 05:35:37;;;;;;;5.20;1.65;;;;;;;7.61;82.47;100464.11;1800897;79;21108;-86
2022/12/30 05:38:04;;;;;;;3.77;1.57;;;;;;;7.59;82.46;100474.10;1791336;79;21859;-85
2022/12/30 05:40:31;;;;;;;3.70;1.30;;;;;;;7.59;82.51;100478.45;1787324;79;21767;-92
2022/12/30 05:42:57;;;;;;;3.33;1.22;;;;;;;7.61;82.47;100483.75;1797226;79;21096;-90
2022/12/30 05:45:24;;;;;;;2.33;1.40;;;;;;;7.59;82.48;100488.50;1797383;78;21082;-89
2022/12/30 05:47:51;;;;;;;3.40;1.12;;;;;;;7.63;82.52;100491.23;1791146;78;21633;-88
2022/12/30 05:50:19;;;;;;;3.55;1.12;;;;;;;7.64;82.42;100499.55;1787384;78;21965;-88
2022/12/30 05:52:46;;;;;;;3.67;1.40;;;;;;;7.63;82.39;100489.50;1786206;79;22997;-91
2022/12/30 05:55:13;;;;;;;2.47;1.52;;;;;;;7.62;82.27;100500.83;1795796;79;21057;-90
2022/12/30 05:57:39;;;;;;;3.15;1.60;;;;;;;7.58;82.05;100503.77;1793036;79;21084;-91
2022/12/30 06:00:08;;;;;;;2.75;1.30;;;;;;;7.52;81.87;100514.45;1795375;79;20962;-90
2022/12/30 06:02:35;;;;;;;2.40;1.37;;;;;;;7.45;81.88;100505.91;1784922;79;21934;-90
2022/12/30 06:05:02;;;;;;;2.72;1.40;;;;;;;7.40;81.80;100509.70;1792928;79;21729;-90
2022/12/30 06:07:29;;;;;;;4.85;1.60;;;;;;;7.34;81.81;100510.81;1788637;79;21027;-90
2022/12/30 06:09:55;;;;;;;3.80;1.30;;;;;;;7.28;81.81;100514.50;1787528;78;21079;-90
2022/12/30 06:12:22;;;;;;;4.90;1.67;;;;;;;7.24;81.82;100510.00;1784497;79;21096;-90
2022/12/30 06:14:49;;;;;;;5.92;2.20;;;;;;;7.21;81.80;100526.51;1787284;79;21096;-90
2022/12/30 06:17:16;;;;;;;2.67;1.20;;;;;;;7.19;81.83;100539.53;1787401;79;21730;-90
2022/12/30 06:19:42;;;;;;;4.05;1.65;;;;;;;7.16;81.81;100535.48;1787165;79;21230;-90
2022/12/30 06:22:09;;;;;;;3.83;1.47;;;;;;;7.14;81.84;100541.52;1793936;79;21516;-90
2022/12/30 06:24:36;;;;;;;5.20;1.70;;;;;;;7.13;81.85;100549.80;1792321;79;21108;-90
2022/12/30 06:27:03;;;;;;;3.27;1.92;;;;;;;7.13;81.97;100543.65;1795916;79;21093;-90
2022/12/30 06:29:32;;;;;;;3.17;1.50;;;;;;;7.16;82.03;100545.95;1787049;79;22553;-90
2022/12/30 06:31:59;;;;;;;6.40;1.95;;;;;;;7.19;82.03;100547.81;1792866;79;21500;-90
2022/12/30 06:34:26;;;;;;;5.67;1.75;;;;;;;7.22;81.95;100548.33;1792458;79;21145;-90
2022/12/30 06:36:53;;;;;;;6.35;1.77;;;;;;;7.22;81.95;100555.75;1789352;79;21741;-90
2022/12/30 06:39:19;;;;;;;4.05;1.65;;;;;;;7.24;81.89;100569.78;1788415;79;21022;-90
2022/12/30 06:41:46;;;;;;;4.65;1.92;;;;;;;7.23;81.91;100573.27;1789791;79;21718;-90
2022/12/30 06:44:13;;;;;;;3.83;1.80;;;;;;;7.23;81.85;100573.69;1792554;78;21972;-91
2022/12/30 06:46:40;;;;;;;6.37;2.00;;;;;;;7.23;81.88;100579.80;1772179;79;21078;-90
2022/12/30 06:49:07;;;;;;;8.63;2.05;;;;;;;7.25;81.90;100581.17;1793466;79;21044;-91
2022/12/30 06:51:33;;;;;;;4.67;1.92;;;;;;;7.26;81.85;100584.25;1803854;79;21108;-90
2022/12/30 06:54:00;;;;;;;3.05;1.72;;;;;;;7.27;81.82;100583.42;1789656;79;22960;-90
2022/12/30 06:56:27;;;;;;;5.65;2.35;;;;;;;7.26;81.79;100590.36;1772325;79;21579;-90
2022/12/30 06:58:54;;;;;;;3.75;1.98;;;;;;;7.24;81.69;100584.61;1798336;79;21117;-90
2022/12/30 07:01:20;;;;;;;8.10;2.00;;;;;;;7.11;81.67;100576.30;1795599;78;21081;-90
2022/12/30 07:03:47;;;;;;;9.75;2.85;;;;;;;7.14;81.63;100596.06;1802932;79;21514;-90
2022/12/30 07:06:14;;;;;;;7.45;3.77;;;;;;;7.09;81.65;100598.92;1798722;79;22102;-91
2022/12/30 07:08:54;;;;;;;6.12;2.27;;;;;;;7.06;81.70;100600.13;1796862;79;21032;-90
2022/12/30 07:11:23;;;;;;;6.50;2.27;;;;;;;6.99;81.67;100603.36;1790085;79;22085;-90
2022/12/30 07:13:50;;;;;;;4.92;2.27;;;;;;;6.95;81.67;100612.81;1793013;79;21652;-90
2022/12/30 07:16:17;;;;;;;4.65;2.15;;;;;;;6.90;81.69;100613.05;1798466;79;21085;-91
2022/12/30 07:18:43;;;;;;;7.17;2.40;;;;;;;6.85;81.70;100609.78;1797806;79;23256;-90
2022/12/30 07:21:10;;;;;;;7.30;2.37;;;;;;;6.80;81.78;100613.13;1799046;79;21061;-90
2022/12/30 07:23:37;;;;;;;7.22;2.40;;;;;;;6.75;81.76;100616.41;1789231;79;21118;-90
2022/12/30 07:26:04;;;;;;;9.05;2.50;;;;;;;6.70;81.78;100631.94;1796691;79;21080;-89
2022/12/30 07:28:31;;;;;;;4.53;2.65;;;;;;;6.64;81.83;100632.98;1796037;79;21057;-89
2022/12/30 07:30:57;;;;;;;3.72;2.17;;;;;;;6.57;81.87;100631.87;1798135;79;21800;-90
2022/12/30 07:33:24;;;;;;;8.23;2.55;;;;;;;6.53;81.96;100632.59;1796022;79;21589;-89
2022/12/30 07:35:51;;;;;;;6.25;2.37;;;;;;;6.50;81.98;100630.27;1801419;79;22303;-89
2022/12/30 07:38:17;;;;;;;10.30;3.10;;;;;;;6.51;82.11;100641.18;1803013;79;21575;-90
2022/12/30 07:40:44;;;;;;;6.97;2.55;;;;;;;6.51;82.11;100634.64;1798832;79;22033;-89
2022/12/30 07:43:11;;;;;;;8.08;2.75;;;;;;;6.49;82.09;100644.16;1790193;79;21735;-90
2022/12/30 07:45:37;;;;;;;8.93;3.35;;;;;;;6.50;82.07;100655.11;1787823;79;22039;-90
2022/12/30 07:48:04;;;;;;;11.85;3.83;;;;;;;6.48;82.06;100655.03;1791540;79;21578;-89
2022/12/30 07:50:31;;;;;;;11.95;3.60;;;;;;;6.48;82.03;100664.61;1794700;79;21295;-90
2022/12/30 07:53:01;;;;;;;10.08;3.10;;;;;;;6.47;82.12;100667.62;1789911;79;21021;-89
2022/12/30 07:55:28;;;;;;;10.53;3.33;;;;;;;6.48;82.09;100664.19;1793115;79;22587;-89
2022/12/30 07:57:58;;;;;;;11.15;3.50;;;;;;;6.51;82.11;100663.41;1794635;79;21530;-89
2022/12/30 08:00:24;;;;;;;9.50;3.30;;;;;;;6.52;82.09;100670.44;1793269;79;21058;-89
2022/12/30 08:02:51;;;;;;;8.25;2.80;;;;;;;6.53;82.08;100670.50;1793744;79;21072;-90
2022/12/30 08:05:18;;;;;;;9.78;2.95;;;;;;;6.56;82.08;100673.22;1794934;79;21009;-90
2022/12/30 08:07:44;;;;;;;9.05;3.08;;;;;;;6.59;82.05;100677.28;1795533;79;21562;-90
2022/12/30 08:10:11;;;;;;;10.35;2.83;;;;;;;6.66;82.15;100681.01;1790823;79;21116;-90
2022/12/30 08:12:38;;;;;;;8.30;2.92;;;;;;;6.74;82.19;100686.58;1791789;79;21061;-90
2022/12/30 08:15:06;;;;;;;6.33;2.55;;;;;;;6.75;82.01;100683.11;1786855;79;21052;-89
2022/12/30 08:17:33;;;;;;;5.25;2.70;;;;;;;6.75;81.90;100685.30;1790627;79;21050;-90
2022/12/30 08:19:59;;;;;;;8.43;2.47;;;;;;;6.75;81.89;100686.61;1789762;79;21710;-90
2022/12/30 08:22:26;;;;;;;5.67;2.37;;;;;;;6.75;81.82;100701.00;1789574;79;21065;-90
2022/12/30 08:24:53;;;;;;;8.33;2.90;;;;;;;6.74;81.80;100694.42;1800707;79;21061;-89
2022/12/30 08:27:20;;;;;;;7.05;2.98;;;;;;;6.73;81.76;100698.73;1800007;79;21834;-90
2022/12/30 08:29:46;;;;;;;9.03;2.83;;;;;;;6.72;81.75;100696.05;1795230;79;21078;-89
2022/12/30 08:32:13;;;;;;;9.25;3.02;;;;;;;6.73;81.74;100701.78;1789796;79;21715;-89
2022/12/30 08:34:40;;;;;;;8.80;3.05;;;;;;;6.73;81.72;100697.86;1793788;79;21605;-89
2022/12/30 08:37:07;;;;;;;6.75;2.58;;;;;;;6.74;81.70;100707.50;1795755;78;21017;-90
2022/12/30 08:39:34;;;;;;;7.65;2.62;;;;;;;6.72;81.65;100710.05;1790310;79;21076;-89
2022/12/30 08:42:00;;;;;;;6.97;3.05;;;;;;;6.74;81.64;100717.97;1789047;79;21124;-89
2022/12/30 08:44:27;;;;;;;9.05;3.20;;;;;;;6.74;81.62;100729.31;1793954;79;21819;-89
2022/12/30 08:46:54;;;;;;;12.35;3.50;;;;;;;6.76;81.66;100724.15;1799702;79;21876;-90
2022/12/30 08:49:21;;;;;;;12.15;3.08;;;;;;;6.79;81.60;100734.32;1788345;79;21072;-90
2022/12/30 08:51:48;;;;;;;11.03;3.08;;;;;;;6.81;81.60;100743.13;1794871;79;21021;-89
2022/12/30 08:54:14;;;;;;;8.40;2.87;;;;;;;6.83;81.50;100739.23;1789002;79;21603;-89
2022/12/30 08:56:45;;;;;;;7.65;2.98;;;;;;;6.85;81.47;100739.30;1789484;79;21736;-89
2022/12/30 08:59:12;;;;;;;11.60;3.70;;;;;;;6.87;81.47;100745.09;1761062;79;21005;-91
2022/12/30 09:01:42;;;;;;;9.48;3.20;;;;;;;6.90;81.45;100737.34;1785063;79;21030;-90
2022/12/30 09:04:09;;;;;;;9.40;3.50;;;;;;;6.93;81.35;100748.36;1792639;79;21611;-90
2022/12/30 09:06:39;;;;;;;9.83;3.92;;;;;;;6.97;81.35;100754.19;1792606;79;21033;-90
2022/12/30 09:09:06;;;;;;;18.00;4.20;;;;;;;7.00;81.27;100750.36;1792270;79;21738;-90
2022/12/30 09:11:35;;;;;;;8.85;3.95;;;;;;;7.04;81.23;100756.61;1794648;79;21066;-90
2022/12/30 09:14:03;;;;;;;9.95;3.40;;;;;;;7.05;81.15;100767.15;1792650;79;21089;-90
2022/12/30 09:16:30;;;;;;;9.33;3.50;;;;;;;7.08;81.08;100765.97;1788394;79;21960;-90
2022/12/30 09:18:58;;;;;;;9.75;3.85;;;;;;;7.09;81.02;100765.13;1797897;79;21045;-90
2022/12/30 09:21:24;;;;;;;8.33;3.55;;;;;;;7.09;80.96;100762.50;1793173;79;21743;-90
2022/12/30 09:23:52;;;;;;;13.18;4.03;;;;;;;7.10;80.86;100764.73;1802445;79;21098;-89
2022/12/30 09:26:24;;;;;;;9.68;2.92;;;;;;;7.10;80.80;100760.38;1793488;79;21040;-90
2022/12/30 09:28:51;;;;;;;9.23;3.45;;;;;;;7.11;80.71;100762.57;1804751;79;20978;-89
2022/12/30 09:31:18;;;;;;;12.07;3.20;;;;;;;7.13;80.74;100768.75;1793514;79;20958;-89
2022/12/30 09:33:45;;;;;;;9.65;3.37;;;;;;;7.17;80.73;100771.57;1790584;78;21748;-90
2022/12/30 09:36:12;;;;;;;13.35;3.62;;;;;;;7.21;80.69;100767.35;1795924;79;21112;-89
2022/12/30 09:38:39;;;;;;;8.28;3.00;;;;;;;7.24;80.62;100777.92;1799120;79;21057;-90
2022/12/30 09:44:58;;;;;;;10.48;4.00;;;;;;;7.30;80.47;100782.11;1790745;79;21077;-91
2022/12/30 09:47:49;;;;;;;16.67;3.70;;;;;;;7.34;80.42;100789.24;1744325;79;21829;-89
2022/12/30 09:50:33;;;;;;;13.70;3.98;;;;;;;7.37;80.34;100787.14;1803481;79;21033;-90
2022/12/30 09:53:11;;;;;;;9.75;3.33;;;;;;;7.37;80.23;100795.00;1795291;79;21019;-89
2022/12/30 09:55:53;;;;;;;10.15;3.87;;;;;;;7.36;80.17;100791.50;1784427;79;21397;-89
2022/12/30 09:58:27;;;;;;;12.20;5.33;;;;;;;7.41;80.18;100795.59;1794985;78;21589;-88
2022/12/30 10:00:55;;;;;;;11.55;4.00;;;;;;;7.43;80.08;100795.23;1783629;79;22991;-89
2022/12/30 10:03:27;;;;;;;15.32;4.95;;;;;;;7.45;79.99;100797.52;1792224;79;21066;-90
2022/12/30 10:06:25;;;;;;;22.55;12.70;;;;;;;7.47;79.95;100801.48;1793515;79;21954;-89
2022/12/30 10:09:36;;;;;;;12.10;5.30;;;;;;;7.49;79.83;100795.48;1789016;79;21078;-89
2022/12/30 10:12:27;;;;;;;29.00;16.65;;;;;;;7.51;79.77;100791.20;1792421;79;21927;-91
2022/12/30 10:15:00;;;;;;;16.70;6.75;;;;;;;7.52;79.64;100798.20;1691920;82;22001;-89
2022/12/30 10:17:44;;;;;;;15.00;7.97;;;;;;;7.53;79.62;100797.81;1735725;82;21120;-91
2022/12/30 10:20:54;;;;;;;23.20;10.10;;;;;;;7.53;79.57;100793.88;1739521;82;21497;-90
2022/12/30 10:23:49;;;;;;;38.05;23.55;;;;;;;7.52;79.48;100792.08;1746982;81;22397;-89
2022/12/30 10:26:26;;;;;;;23.98;16.00;;;;;;;7.59;79.53;100794.10;1765529;80;21088;-89
2022/12/30 10:29:05;;;;;;;27.45;15.55;;;;;;;7.68;79.52;100787.02;1761715;80;21767;-89
2022/12/30 10:31:34;;;;;;;22.00;10.08;;;;;;;7.70;79.25;100798.44;1755967;80;21501;-89
2022/12/30 10:34:06;;;;;;;17.02;9.13;;;;;;;7.69;79.09;100791.41;1753483;80;21005;-89
2022/12/30 10:37:12;;;;;;;38.50;20.48;;;;;;;7.70;79.08;100791.47;1758137;80;21049;-89
2022/12/30 10:39:48;;;;;;;18.50;11.12;;;;;;;7.72;79.00;100786.29;1761061;80;21372;-88
2022/12/30 10:42:40;;;;;;;17.42;9.68;;;;;;;7.74;78.83;100796.41;1740412;81;21937;-89
2022/12/30 10:45:39;;;;;;;18.80;10.10;;;;;;;7.76;78.81;100796.92;1745450;81;21010;-88
2022/12/30 10:48:44;;;;;;;15.23;7.78;;;;;;;7.76;78.77;100810.02;1726288;82;21470;-89
2022/12/30 10:51:12;;;;;;;15.32;8.50;;;;;;;7.77;78.67;100810.52;1744335;81;22062;-89
2022/12/30 10:53:39;;;;;;;23.15;11.68;;;;;;;7.79;78.61;100814.08;1742089;81;21007;-89
2022/12/30 10:56:09;;;;;;;30.00;17.07;;;;;;;7.85;78.54;100817.34;1748835;81;21743;-89
2022/12/30 10:58:46;;;;;;;21.12;11.03;;;;;;;7.90;78.43;100820.13;1701254;81;21022;-89
2022/12/30 11:01:19;;;;;;;15.05;6.47;;;;;;;7.92;78.33;100822.38;1743382;81;21023;-88
2022/12/30 11:03:53;;;;;;;16.67;6.35;;;;;;;7.99;78.35;100829.64;1744774;81;21248;-89
2022/12/30 11:06:24;;;;;;;17.45;5.83;;;;;;;8.06;78.18;100830.34;1734303;81;21947;-89
2022/12/30 11:08:52;;;;;;;14.25;5.95;;;;;;;8.14;78.10;100829.30;1741321;81;21724;-89
2022/12/30 11:14:42;;;;;;;17.23;7.03;;;;;;;8.21;78.07;100828.70;1738031;81;20915;-92
2022/12/30 11:16:42;;;;;;;16.52;6.03;;;;;;;8.40;77.83;100824.98;1745583;81;21078;-89
2022/12/30 11:19:23;;;;;;;13.40;4.33;;;;;;;8.47;77.64;100825.71;1741603;81;21961;-90
2022/12/30 11:21:54;;;;;;;11.33;4.83;;;;;;;8.49;77.31;100837.15;1748631;81;21675;-89
2022/12/30 11:24:30;;;;;;;17.82;5.40;;;;;;;8.49;77.19;100833.64;1742729;81;21039;-88
2022/12/30 11:27:01;;;;;;;14.47;5.30;;;;;;;8.52;77.18;100827.17;1739354;81;20988;-89
2022/12/30 11:29:28;;;;;;;11.78;3.50;;;;;;;8.52;76.96;100826.77;1746210;81;21007;-89
2022/12/30 11:31:54;;;;;;;11.78;3.83;;;;;;;8.53;76.79;100832.91;1738411;81;21067;-90
2022/12/30 11:34:32;;;;;;;8.63;3.92;;;;;;;8.49;76.67;100845.45;1742395;81;22845;-90
2022/12/30 11:37:00;;;;;;;10.48;3.40;;;;;;;8.50;76.71;100828.45;1741550;81;21042;-90
2022/12/30 11:39:33;;;;;;;13.20;3.67;;;;;;;8.56;76.67;100833.91;1738453;81;21078;-90
2022/12/30 11:42:01;;;;;;;17.90;3.33;;;;;;;8.52;76.33;100837.27;1739045;81;21074;-90
2022/12/30 11:44:33;;;;;;;14.23;3.98;;;;;;;8.45;76.19;100842.25;1739172;81;21070;-89
2022/12/30 11:47:07;;;;;;;11.70;3.65;;;;;;;8.38;76.10;100845.03;1748666;81;21768;-90
2022/12/30 11:49:49;;;;;;;13.28;3.67;;;;;;;8.30;76.00;100847.37;1729228;81;21186;-90
2022/12/30 11:52:28;;;;;;;10.35;3.60;;;;;;;8.24;76.04;100848.88;1747572;81;21982;-90
2022/12/30 11:55:17;;;;;;;13.50;4.28;;;;;;;8.20;75.87;100865.34;1727763;81;20976;-89
2022/12/30 11:57:43;;;;;;;13.80;4.67;;;;;;;8.16;75.80;100863.02;1723093;81;21109;-90
2022/12/30 12:00:21;;;;;;;13.25;3.95;;;;;;;8.11;75.67;100867.23;1745543;80;21750;-90
2022/12/30 12:03:17;;;;;;;14.40;4.22;;;;;;;8.08;75.76;100882.41;1763998;80;21516;-92
2022/12/30 12:05:41;;;;;;;13.58;4.42;;;;;;;8.06;75.74;100882.77;1743361;80;21996;-90
2022/12/30 12:08:49;;;;;;;11.85;3.67;;;;;;;8.02;75.69;100884.81;1760058;81;21088;-89
2022/12/30 12:11:23;;;;;;;14.55;3.33;;;;;;;7.95;75.56;100888.92;1760604;81;21088;-89
2022/12/30 12:14:20;;;;;;;12.33;3.35;;;;;;;7.90;75.55;100898.75;1756648;81;21750;-89
2022/12/30 12:17:05;;;;;;;10.48;2.92;;;;;;;7.86;75.56;100902.98;1752405;81;21092;-89
2022/12/30 12:19:43;;;;;;;;;;;;;;;7.83;75.55;100905.50;1764461;81;20909;-89
2022/12/30 12:22:15;;;;;;;12.45;3.12;;;;;;;7.79;75.50;100916.70;1753543;81;20173;-88
2022/12/30 12:24:43;;;;;;;8.90;3.30;;;;;;;7.76;75.61;100917.46;1751717;81;21041;-91
2022/12/30 12:27:13;;;;;;;14.25;4.40;;;;;;;7.73;75.61;100916.45;1756122;81;23037;-89
2022/12/30 12:29:40;;;;;;;11.30;3.25;;;;;;;7.68;75.58;100912.78;1750422;80;21956;-89
2022/12/30 12:32:24;;;;;;;11.88;3.50;;;;;;;7.62;75.44;100912.12;1757326;81;20989;-89
2022/12/30 12:35:12;;;;;;;;;;;;;;;7.57;75.39;100913.66;1765594;81;20977;-89
2022/12/30 12:38:28;;;;;;;9.73;3.33;;;;;;;7.50;75.28;100916.43;1717836;82;20145;-89
2022/12/30 12:41:25;;;;;;;10.40;2.98;;;;;;;7.44;75.28;100924.48;1729011;81;23070;-89
2022/12/30 12:44:21;;;;;;;12.93;3.52;;;;;;;7.36;75.30;100928.98;1734543;81;20959;-89
2022/12/30 12:47:22;;;;;;;11.93;3.40;;;;;;;7.31;75.25;100937.05;1751199;80;21015;-89
2022/12/30 12:50:03;;;;;;;17.25;3.67;;;;;;;7.26;75.27;100935.96;1758010;80;21005;-89
2022/12/30 12:53:00;;;;;;;9.68;3.20;;;;;;;7.28;75.43;100944.80;1764042;80;20921;-90
2022/12/30 12:56:01;;;;;;;11.38;3.40;;;;;;;7.32;75.36;100945.80;1756073;80;21752;-90
2022/12/30 12:58:59;;;;;;;11.78;3.83;;;;;;;7.39;75.42;100947.84;1769857;80;21040;-91
2022/12/30 13:01:49;;;;;;;16.37;3.72;;;;;;;7.49;75.36;100951.33;1762156;80;20979;-89